Time;durP1;ratioP1;P1;durP2;ratioP2;P2;SDS_P1;SDS_P2;PMS_P1;PMS_P2;Temp;Humidity;BMP_temperature;BMP_pressure;BME280_temperature;BME280_humidity;BME280_pressure;Samples;Min_cycle;Max_cycle;Signal;HPM_P1;HPM_P2
2021/10/27 00:00:04;;;;;;;27.50;18.52;;;;;;;5.75;100.00;96735.88;1030566;28;20038;-71
2021/10/27 00:00:35;;;;;;;29.40;19.08;;;;;;;5.84;100.00;96750.28;1027899;28;20542;-72
2021/10/27 00:01:05;;;;;;;27.55;19.73;;;;;;;5.81;100.00;96745.47;1031271;28;20399;-71
2021/10/27 00:01:36;;;;;;;27.30;19.10;;;;;;;5.81;100.00;96756.69;1031271;28;20038;-70
2021/10/27 00:02:06;;;;;;;30.02;19.20;;;;;;;5.85;100.00;96757.88;1026913;28;20523;-71
2021/10/27 00:02:37;;;;;;;26.17;18.65;;;;;;;5.83;100.00;96746.84;1030473;28;20516;-71
2021/10/27 00:03:07;;;;;;;27.33;19.67;;;;;;;5.88;100.00;96747.03;1026756;28;20042;-70
2021/10/27 00:03:38;;;;;;;27.25;19.05;;;;;;;5.90;100.00;96758.06;1026513;28;20034;-70
2021/10/27 00:04:09;;;;;;;26.13;19.85;;;;;;;5.91;100.00;96751.84;1026916;28;20031;-72
2021/10/27 00:04:39;;;;;;;22.10;17.33;;;;;;;5.72;100.00;96728.47;1031061;28;20627;-70
2021/10/27 00:05:13;;;;;;;26.00;20.20;;;;;;;5.88;100.00;96754.84;1034675;28;20029;-71
2021/10/27 00:05:44;;;;;;;27.92;18.98;;;;;;;5.83;100.00;96743.44;1035140;28;20038;-70
2021/10/27 00:06:15;;;;;;;25.20;19.23;;;;;;;5.82;100.00;96749.66;1030423;28;20285;-71
2021/10/27 00:06:45;;;;;;;24.52;19.00;;;;;;;5.73;100.00;96733.47;1031260;28;20269;-71
2021/10/27 00:07:16;;;;;;;27.75;18.52;;;;;;;5.79;100.00;96744.88;1031181;28;20034;-71
2021/10/27 00:07:46;;;;;;;24.58;18.45;;;;;;;5.77;100.00;96745.09;1034233;28;20455;-71
2021/10/27 00:08:17;;;;;;;25.23;19.63;;;;;;;5.78;100.00;96749.28;1034622;28;20034;-70
2021/10/27 00:08:49;;;;;;;26.70;19.08;;;;;;;5.76;100.00;96751.28;1025209;28;20046;-70
2021/10/27 00:09:20;;;;;;;26.52;18.42;;;;;;;5.76;100.00;96751.28;1026329;28;20031;-72
2021/10/27 00:09:50;;;;;;;23.35;18.48;;;;;;;5.73;100.00;96751.69;1030353;28;20269;-71
2021/10/27 00:10:21;;;;;;;24.27;18.33;;;;;;;5.73;100.00;96753.50;1034928;28;20037;-71
2021/10/27 00:10:51;;;;;;;26.13;18.55;;;;;;;5.74;100.00;96750.72;1037830;28;20088;-71
2021/10/27 00:11:22;;;;;;;24.38;18.63;;;;;;;5.73;100.00;96751.69;1038608;28;20033;-71
2021/10/27 00:11:52;;;;;;;28.83;19.48;;;;;;;5.73;100.00;96746.50;1041152;28;20055;-69
2021/10/27 00:12:23;;;;;;;27.35;19.05;;;;;;;5.72;100.00;96751.91;1038898;28;20016;-72
2021/10/27 00:12:53;;;;;;;30.52;18.55;;;;;;;5.65;100.00;96741.53;1038441;28;20029;-72
2021/10/27 00:13:24;;;;;;;25.52;18.42;;;;;;;5.71;100.00;96750.31;1030598;28;20030;-71
2021/10/27 00:13:54;;;;;;;29.27;20.38;;;;;;;5.68;100.00;96738.50;1034501;28;20400;-72
2021/10/27 00:14:25;;;;;;;24.38;18.70;;;;;;;5.75;100.00;96748.91;1034637;28;20022;-72
2021/10/27 00:14:56;;;;;;;28.58;19.45;;;;;;;5.72;100.00;96746.72;1030647;28;20069;-69
2021/10/27 00:15:26;;;;;;;27.02;19.15;;;;;;;5.72;100.00;96750.09;1034778;28;20053;-70
2021/10/27 00:15:57;;;;;;;29.15;18.63;;;;;;;5.68;100.00;96751.53;1034389;28;20040;-70
2021/10/27 00:16:28;;;;;;;26.48;18.83;;;;;;;5.61;100.00;96741.16;1034736;28;20021;-68
2021/10/27 00:16:58;;;;;;;25.30;19.13;;;;;;;5.65;100.00;96751.94;1030766;28;20435;-70
2021/10/27 00:17:29;;;;;;;28.70;19.98;;;;;;;5.61;100.00;96742.94;1034751;28;20268;-71
2021/10/27 00:18:02;;;;;;;27.60;19.23;;;;;;;5.59;100.00;96745.75;1030075;28;20034;-70
2021/10/27 00:18:32;;;;;;;26.50;20.25;;;;;;;5.55;100.00;96752.38;1031291;28;20026;-71
2021/10/27 00:19:03;;;;;;;27.52;19.08;;;;;;;5.56;100.00;96756.56;1034618;28;20307;-71
2021/10/27 00:19:33;;;;;;;28.33;18.98;;;;;;;5.48;100.00;96740.38;1035505;28;20026;-69
2021/10/27 00:20:05;;;;;;;33.30;20.10;;;;;;;5.48;100.00;96737.78;1034888;28;20700;-70
2021/10/27 00:20:36;;;;;;;23.75;19.45;;;;;;;5.54;100.00;96755.19;1028999;28;20100;-71
2021/10/27 00:21:06;;;;;;;28.48;18.52;;;;;;;5.52;100.00;96757.19;1030462;28;20711;-69
2021/10/27 00:21:36;;;;;;;27.67;18.73;;;;;;;5.50;100.00;96754.81;1034339;28;20026;-72
2021/10/27 00:22:07;;;;;;;24.65;18.85;;;;;;;5.50;100.00;96756.59;1034778;28;20514;-70
2021/10/27 00:22:38;;;;;;;24.67;17.88;;;;;;;5.45;100.00;96741.59;1038755;28;20048;-71
2021/10/27 00:23:08;;;;;;;27.75;18.42;;;;;;;5.49;100.00;96752.41;1034615;28;20076;-69
2021/10/27 00:23:39;;;;;;;26.23;19.38;;;;;;;5.48;100.00;96756.00;1034801;28;20272;-73
2021/10/27 00:24:09;;;;;;;29.65;19.23;;;;;;;5.46;100.00;96752.81;1030323;28;20118;-69
2021/10/27 00:24:40;;;;;;;27.67;19.70;;;;;;;5.43;100.00;96752.22;1026610;28;20055;-69
2021/10/27 00:25:11;;;;;;;28.10;19.25;;;;;;;5.43;100.00;96754.81;1030357;28;20038;-71
2021/10/27 00:25:42;;;;;;;28.48;19.35;;;;;;;5.43;100.00;96749.63;1026550;28;20030;-71
2021/10/27 00:26:12;;;;;;;24.85;18.75;;;;;;;5.39;100.00;96748.41;1030513;28;20669;-69
2021/10/27 00:26:44;;;;;;;25.58;18.25;;;;;;;5.40;100.00;96750.03;1034556;28;20045;-70
2021/10/27 00:27:14;;;;;;;26.58;18.27;;;;;;;5.38;100.00;96757.22;1030411;28;20037;-69
2021/10/27 00:27:45;;;;;;;23.48;17.85;;;;;;;5.30;100.00;96744.44;1034325;28;20600;-71
2021/10/27 00:28:15;;;;;;;28.55;18.80;;;;;;;5.28;100.00;96741.25;1030321;28;20267;-69
2021/10/27 00:28:46;;;;;;;26.38;19.05;;;;;;;5.37;100.00;96750.44;1030526;28;20030;-70
2021/10/27 00:29:17;;;;;;;28.63;19.55;;;;;;;5.35;100.00;96757.63;1030355;28;20073;-69
2021/10/27 00:29:47;;;;;;;28.95;18.67;;;;;;;5.33;100.00;96754.44;1034275;28;20265;-72
2021/10/27 00:30:18;;;;;;;25.60;19.90;;;;;;;5.32;100.00;96758.03;1030676;28;20254;-69
2021/10/27 00:30:49;;;;;;;27.63;19.65;;;;;;;5.29;100.00;96758.44;1026519;28;20026;-71
2021/10/27 00:31:19;;;;;;;27.65;20.08;;;;;;;5.30;100.00;96754.84;1030424;28;20022;-72
2021/10/27 00:31:50;;;;;;;29.23;20.52;;;;;;;5.29;100.00;96755.84;1026659;28;20107;-69
2021/10/27 00:32:20;;;;;;;27.98;19.83;;;;;;;5.29;100.00;96755.84;1030745;28;20030;-71
2021/10/27 00:32:51;;;;;;;34.67;21.23;;;;;;;5.29;100.00;96761.03;1026747;28;20050;-69
2021/10/27 00:33:22;;;;;;;29.33;21.02;;;;;;;5.30;100.00;96760.06;1028670;28;20038;-71
2021/10/27 00:33:52;;;;;;;26.95;20.27;;;;;;;5.29;100.00;96755.03;1022477;29;20063;-72
2021/10/27 00:34:23;;;;;;;29.48;20.70;;;;;;;5.30;100.00;96765.25;1026843;28;20372;-72
2021/10/27 00:34:54;;;;;;;29.13;21.63;;;;;;;5.30;100.00;96764.44;1026492;28;20019;-72
2021/10/27 00:35:24;;;;;;;32.33;21.73;;;;;;;5.31;100.00;96753.84;1030814;28;20057;-72
2021/10/27 00:35:55;;;;;;;28.77;20.88;;;;;;;5.26;100.00;96748.44;1034889;28;20314;-69
2021/10/27 00:36:25;;;;;;;27.38;21.75;;;;;;;5.30;100.00;96751.44;1030600;28;20077;-72
2021/10/27 00:36:56;;;;;;;28.00;21.17;;;;;;;5.23;100.00;96748.03;1022277;29;20030;-70
2021/10/27 00:37:26;;;;;;;30.92;21.38;;;;;;;5.28;100.00;96759.44;1018566;29;20485;-70
2021/10/27 00:37:57;;;;;;;26.98;20.50;;;;;;;5.28;100.00;96764.66;1021921;28;20474;-69
2021/10/27 00:38:27;;;;;;;31.30;20.88;;;;;;;5.26;100.00;96756.25;1026586;28;20027;-71
2021/10/27 00:38:58;;;;;;;27.80;20.42;;;;;;;5.25;100.00;96761.66;1030347;28;20030;-71
2021/10/27 00:39:28;;;;;;;26.35;19.20;;;;;;;5.25;100.00;96756.47;1030493;28;20023;-71
2021/10/27 00:39:59;;;;;;;27.75;19.42;;;;;;;5.24;100.00;96757.47;1030909;28;20023;-71
2021/10/27 00:40:29;;;;;;;24.95;19.60;;;;;;;5.26;100.00;96764.03;1022326;28;20016;-71
2021/10/27 00:40:59;;;;;;;27.83;18.90;;;;;;;5.16;100.00;96748.88;1020462;28;20122;-71
2021/10/27 00:41:30;;;;;;;28.77;20.27;;;;;;;5.21;100.00;96761.28;1026727;28;20054;-71
2021/10/27 00:42:01;;;;;;;26.63;19.02;;;;;;;5.15;100.00;96752.47;1027339;28;20397;-69
2021/10/27 00:42:31;;;;;;;28.50;18.48;;;;;;;5.20;100.00;96764.88;1031658;28;20416;-70
2021/10/27 00:43:02;;;;;;;27.00;19.27;;;;;;;5.18;100.00;96756.47;1031372;28;20592;-71
2021/10/27 00:43:32;;;;;;;32.50;17.95;;;;;;;5.19;100.00;96761.47;1031399;28;20019;-70
2021/10/27 00:44:02;;;;;;;28.67;18.52;;;;;;;5.16;100.00;96758.47;1027664;28;20023;-71
2021/10/27 00:44:33;;;;;;;25.63;18.45;;;;;;;5.15;100.00;96756.88;1023447;28;20094;-71
2021/10/27 00:45:05;;;;;;;25.95;18.65;;;;;;;5.16;100.00;96758.47;1023330;28;20533;-72
2021/10/27 00:45:35;;;;;;;22.83;18.30;;;;;;;5.21;100.00;96761.28;1023822;28;20769;-71
2021/10/27 00:46:19;;;;;;;23.65;17.48;;;;;;;5.19;100.00;96760.66;1027521;28;20278;-72
2021/10/27 00:47:02;;;;;;;23.40;17.73;;;;;;;5.14;100.00;96760.50;1035156;28;20032;-71
2021/10/27 00:47:32;;;;;;;24.27;18.17;;;;;;;5.14;100.00;96760.50;1031334;28;20269;-71
2021/10/27 00:48:03;;;;;;;23.98;17.05;;;;;;;5.13;100.00;96764.91;1037998;28;20270;-72
2021/10/27 00:48:37;;;;;;;25.27;17.90;;;;;;;5.12;100.00;96768.47;1039455;28;20021;-72
2021/10/27 00:49:08;;;;;;;22.50;18.10;;;;;;;5.10;100.00;96759.28;1039953;28;20037;-71
2021/10/27 00:49:42;;;;;;;24.02;18.30;;;;;;;5.05;100.00;96753.88;1039784;28;20650;-72
2021/10/27 00:50:12;;;;;;;26.38;17.70;;;;;;;5.09;100.00;96768.09;1027248;28;20500;-70
2021/10/27 00:50:43;;;;;;;24.02;17.42;;;;;;;5.08;100.00;96761.28;1027590;28;20262;-69
2021/10/27 00:51:13;;;;;;;25.23;18.10;;;;;;;5.05;100.00;96759.09;1027579;28;20019;-69
2021/10/27 00:51:44;;;;;;;24.50;17.80;;;;;;;5.06;100.00;96761.47;1027492;28;20065;-70
2021/10/27 00:52:15;;;;;;;24.05;17.27;;;;;;;5.08;100.00;96756.09;1031585;28;20022;-69
2021/10/27 00:52:45;;;;;;;27.73;18.83;;;;;;;5.07;100.00;96759.69;1031416;28;20027;-69
2021/10/27 00:53:16;;;;;;;23.30;17.58;;;;;;;5.03;100.00;96761.09;1027796;28;20266;-72
2021/10/27 00:53:47;;;;;;;21.95;16.88;;;;;;;5.04;100.00;96765.31;1031506;28;20030;-70
2021/10/27 00:54:18;;;;;;;22.88;16.17;;;;;;;5.00;100.00;96758.88;1031681;28;20109;-70
2021/10/27 00:54:50;;;;;;;26.25;17.00;;;;;;;5.04;100.00;96762.69;1027649;28;20299;-69
2021/10/27 00:55:20;;;;;;;28.02;18.42;;;;;;;4.99;100.00;96763.28;1027576;28;20151;-69
2021/10/27 00:55:51;;;;;;;24.70;17.13;;;;;;;4.96;100.00;96764.50;1027245;28;20708;-70
2021/10/27 00:56:21;;;;;;;24.42;17.13;;;;;;;4.97;100.00;96762.72;1031934;28;20135;-70
2021/10/27 00:56:53;;;;;;;26.60;17.02;;;;;;;4.91;100.00;96753.09;1031353;28;20031;-70
2021/10/27 00:57:24;;;;;;;23.27;17.42;;;;;;;4.93;100.00;96754.50;1031403;28;20061;-71
2021/10/27 00:57:55;;;;;;;29.67;19.23;;;;;;;4.91;100.00;96760.91;1027078;28;20321;-70
2021/10/27 00:58:25;;;;;;;27.58;18.13;;;;;;;4.94;100.00;96763.09;1027655;28;20031;-69
2021/10/27 00:58:56;;;;;;;28.05;18.92;;;;;;;4.89;100.00;96763.69;1023886;28;20493;-71
2021/10/27 00:59:26;;;;;;;24.65;16.75;;;;;;;4.90;100.00;96760.09;1027636;28;20037;-71
2021/10/27 00:59:57;;;;;;;28.85;18.27;;;;;;;4.93;100.00;96757.09;1027261;28;20022;-71
2021/10/27 01:00:27;;;;;;;23.15;17.90;;;;;;;4.91;100.00;96761.69;1023818;28;20031;-72
2021/10/27 01:00:58;;;;;;;23.02;17.02;;;;;;;4.91;100.00;96760.91;1031773;28;20030;-71
2021/10/27 01:01:28;;;;;;;28.15;18.15;;;;;;;4.90;100.00;96757.50;1031404;28;20504;-71
2021/10/27 01:01:59;;;;;;;27.80;18.05;;;;;;;4.86;100.00;96760.69;1035694;28;20077;-72
2021/10/27 01:02:29;;;;;;;24.40;17.58;;;;;;;4.86;100.00;96760.69;1035741;28;20088;-72
2021/10/27 01:03:00;;;;;;;24.65;18.60;;;;;;;4.84;100.00;96760.13;1035703;28;20045;-71
2021/10/27 01:03:32;;;;;;;29.02;18.15;;;;;;;4.83;100.00;96754.13;1035650;28;20427;-72
2021/10/27 01:04:03;;;;;;;24.27;19.13;;;;;;;4.80;100.00;96759.72;1031250;28;20045;-72
2021/10/27 01:04:34;;;;;;;25.55;18.42;;;;;;;4.69;100.00;96747.28;1027470;28;20281;-72
2021/10/27 01:05:05;;;;;;;26.88;18.33;;;;;;;4.75;100.00;96751.69;1023332;29;20278;-69
2021/10/27 01:05:37;;;;;;;23.60;18.13;;;;;;;4.73;100.00;96761.53;1024609;28;20491;-69
2021/10/27 01:06:08;;;;;;;26.65;19.05;;;;;;;4.65;100.00;96746.09;1027713;28;20664;-69
2021/10/27 01:06:38;;;;;;;29.00;19.35;;;;;;;4.75;100.00;96758.72;1031635;28;20290;-70
2021/10/27 01:07:09;;;;;;;26.60;19.92;;;;;;;4.73;100.00;96758.91;1027438;28;20037;-69
2021/10/27 01:07:39;;;;;;;26.15;18.77;;;;;;;4.65;100.00;96746.09;1026921;28;20019;-68
2021/10/27 01:08:10;;;;;;;27.45;18.23;;;;;;;4.69;100.00;96742.09;1030815;28;20030;-71
2021/10/27 01:08:41;;;;;;;28.23;19.67;;;;;;;4.73;100.00;96759.72;1039840;28;20025;-71
2021/10/27 01:09:11;;;;;;;24.45;18.40;;;;;;;4.73;100.00;96751.13;1035332;28;20026;-71
2021/10/27 01:09:42;;;;;;;28.17;20.15;;;;;;;4.75;100.00;96750.91;1027386;28;20745;-71
2021/10/27 01:10:12;;;;;;;24.65;18.55;;;;;;;4.77;100.00;96754.91;1023305;29;20434;-71
2021/10/27 01:10:42;;;;;;;27.25;19.75;;;;;;;4.77;100.00;96756.72;1027356;28;20031;-72
2021/10/27 01:11:13;;;;;;;26.05;19.48;;;;;;;4.76;100.00;96753.28;1031323;28;20435;-70
2021/10/27 01:11:44;;;;;;;30.83;20.92;;;;;;;4.76;100.00;96742.91;1031445;28;20026;-71
2021/10/27 01:12:15;;;;;;;32.55;20.70;;;;;;;4.78;100.00;96756.50;1027299;28;20098;-71
2021/10/27 01:12:46;;;;;;;26.88;19.35;;;;;;;4.77;100.00;96754.91;1031756;28;20697;-71
2021/10/27 01:13:16;;;;;;;26.83;19.52;;;;;;;4.74;100.00;96744.91;1031579;28;20045;-69
2021/10/27 01:13:47;;;;;;;30.17;19.65;;;;;;;4.80;100.00;96751.13;1023676;28;20270;-71
2021/10/27 01:14:17;;;;;;;27.52;19.10;;;;;;;4.86;100.00;96748.53;1027399;28;20030;-71
2021/10/27 01:14:48;;;;;;;29.80;20.00;;;;;;;4.86;100.00;96753.72;1023346;28;20019;-70
2021/10/27 01:15:19;;;;;;;26.00;18.85;;;;;;;4.85;100.00;96754.69;1027743;28;20073;-71
2021/10/27 01:15:49;;;;;;;25.13;18.92;;;;;;;4.85;100.00;96752.09;1031186;28;20058;-71
2021/10/27 01:16:19;;;;;;;26.75;19.65;;;;;;;4.85;100.00;96752.09;1035251;28;20030;-71
2021/10/27 01:16:50;;;;;;;25.52;18.85;;;;;;;4.84;100.00;96750.50;1039497;28;20126;-70
2021/10/27 01:17:20;;;;;;;26.45;18.40;;;;;;;4.83;100.00;96756.72;1039429;28;20025;-71
2021/10/27 01:17:52;;;;;;;27.35;18.63;;;;;;;4.85;100.00;96756.50;1043107;28;20425;-70
2021/10/27 01:18:22;;;;;;;26.98;19.17;;;;;;;4.78;100.00;96750.50;1035156;28;20109;-70
2021/10/27 01:18:55;;;;;;;25.65;19.40;;;;;;;4.80;100.00;96757.13;1031217;28;20317;-72
2021/10/27 01:19:25;;;;;;;25.23;19.00;;;;;;;4.78;100.00;96756.50;1031523;28;20542;-70
2021/10/27 01:19:58;;;;;;;29.70;20.65;;;;;;;4.76;100.00;96749.91;1031931;28;20272;-71
2021/10/27 01:20:29;;;;;;;25.50;18.70;;;;;;;4.74;100.00;96757.91;1036571;28;20432;-71
2021/10/27 01:20:59;;;;;;;26.65;18.63;;;;;;;4.71;100.00;96753.09;1043750;28;20286;-71
2021/10/27 01:21:30;;;;;;;27.73;18.95;;;;;;;4.66;100.00;96747.69;1039321;28;20022;-69
2021/10/27 01:22:00;;;;;;;24.95;17.52;;;;;;;4.52;100.00;96735.69;1027536;28;20034;-69
2021/10/27 01:22:36;;;;;;;27.15;18.00;;;;;;;4.48;100.00;96737.91;1031098;28;20026;-69
2021/10/27 01:23:06;;;;;;;23.73;18.23;;;;;;;4.47;100.00;96747.50;1035308;28;20105;-70
2021/10/27 01:23:37;;;;;;;24.05;17.52;;;;;;;4.43;100.00;96751.50;1035343;28;20273;-70
2021/10/27 01:24:08;;;;;;;23.17;17.23;;;;;;;4.38;100.00;96743.47;1036038;28;20492;-70
2021/10/27 01:24:38;;;;;;;25.60;17.80;;;;;;;4.30;100.00;96735.09;1035192;28;20022;-71
2021/10/27 01:25:10;;;;;;;28.73;17.80;;;;;;;4.27;100.00;96733.69;1027341;28;20026;-69
2021/10/27 01:25:41;;;;;;;28.55;18.90;;;;;;;4.34;100.00;96744.09;1027339;28;20035;-73
2021/10/27 01:26:12;;;;;;;26.42;18.48;;;;;;;4.33;100.00;96745.88;1023962;28;20266;-71
2021/10/27 01:26:42;;;;;;;26.05;18.65;;;;;;;4.31;100.00;96747.06;1031951;28;20034;-71
2021/10/27 01:27:12;;;;;;;26.75;18.30;;;;;;;4.29;100.00;96742.06;1035384;28;20284;-71
2021/10/27 01:27:44;;;;;;;34.40;19.65;;;;;;;4.25;100.00;96741.66;1039231;28;20046;-68
2021/10/27 01:28:14;;;;;;;26.00;16.92;;;;;;;4.22;100.00;96743.84;1039233;28;20128;-71
2021/10/27 01:28:45;;;;;;;26.38;17.88;;;;;;;4.12;100.00;96733.03;1035514;28;20517;-71
2021/10/27 01:29:15;;;;;;;23.17;17.38;;;;;;;4.18;100.00;96748.66;1027396;28;20035;-71
2021/10/27 01:29:46;;;;;;;30.10;20.60;;;;;;;4.16;100.00;96742.06;1027350;28;20496;-72
2021/10/27 01:30:18;;;;;;;29.60;19.67;;;;;;;4.13;100.00;96745.06;1023400;28;20490;-71
2021/10/27 01:30:49;;;;;;;35.50;19.63;;;;;;;4.11;100.00;96744.44;1023741;28;20027;-71
2021/10/27 01:31:19;;;;;;;27.20;19.08;;;;;;;3.99;100.00;96737.22;1030990;28;20281;-70
2021/10/27 01:31:50;;;;;;;29.27;18.02;;;;;;;4.07;100.00;96743.25;1027748;28;20046;-71
2021/10/27 01:32:31;;;;;;;25.98;19.35;;;;;;;4.04;100.00;96744.44;1023370;28;20480;-72
2021/10/27 01:33:01;;;;;;;28.38;19.67;;;;;;;3.95;100.00;96733.41;1024762;28;20090;-70
2021/10/27 01:33:32;;;;;;;27.77;19.15;;;;;;;3.94;100.00;96737.00;1023116;29;20350;-70
2021/10/27 01:34:02;;;;;;;29.98;19.45;;;;;;;3.94;100.00;96736.22;1024771;28;20031;-69
2021/10/27 01:34:33;;;;;;;26.30;19.80;;;;;;;3.97;100.00;96744.41;1029010;28;20428;-69
2021/10/27 01:35:06;;;;;;;25.75;18.88;;;;;;;3.95;100.00;96737.81;1035172;28;20053;-71
2021/10/27 01:35:38;;;;;;;30.00;17.58;;;;;;;3.95;100.00;96737.81;1027145;28;20262;-69
2021/10/27 01:36:09;;;;;;;24.52;17.52;;;;;;;3.93;100.00;96745.00;1028153;28;20854;-70
2021/10/27 01:36:39;;;;;;;26.08;18.85;;;;;;;3.88;100.00;96742.97;1031902;28;20293;-70
2021/10/27 01:37:10;;;;;;;25.05;18.25;;;;;;;3.88;100.00;96737.78;1035777;28;20057;-69
2021/10/27 01:37:41;;;;;;;27.27;18.10;;;;;;;3.87;100.00;96743.19;1038838;28;20060;-68
2021/10/27 01:38:11;;;;;;;29.70;19.30;;;;;;;3.83;100.00;96747.16;1035110;28;20042;-69
2021/10/27 01:38:42;;;;;;;26.88;19.20;;;;;;;3.73;100.00;96731.97;1035486;28;20041;-71
2021/10/27 01:39:12;;;;;;;25.95;17.30;;;;;;;3.80;100.00;96742.38;1031096;28;20034;-72
2021/10/27 01:39:43;;;;;;;24.88;17.58;;;;;;;3.81;100.00;96747.34;1031310;28;20022;-69
2021/10/27 01:40:16;;;;;;;26.30;19.40;;;;;;;3.78;100.00;96745.94;1035374;28;20038;-70
2021/10/27 01:40:46;;;;;;;29.20;18.92;;;;;;;3.77;100.00;96739.16;1035746;28;20312;-70
2021/10/27 01:41:17;;;;;;;28.67;19.73;;;;;;;3.77;100.00;96740.94;1039672;28;20279;-69
2021/10/27 01:41:47;;;;;;;26.42;18.75;;;;;;;3.74;100.00;96741.34;1043406;28;20502;-69
2021/10/27 01:42:18;;;;;;;24.27;17.88;;;;;;;3.68;100.00;96729.13;1043232;28;20021;-70
2021/10/27 01:42:52;;;;;;;26.58;18.83;;;;;;;3.74;100.00;96736.94;1039438;28;20022;-69
2021/10/27 01:43:23;;;;;;;27.60;17.85;;;;;;;3.74;100.00;96738.75;1035139;28;20330;-70
2021/10/27 01:43:55;;;;;;;30.48;18.15;;;;;;;3.66;100.00;96728.53;1035383;28;20268;-70
2021/10/27 01:44:25;;;;;;;24.40;18.75;;;;;;;3.67;100.00;96737.91;1031355;28;20064;-71
2021/10/27 01:44:56;;;;;;;24.50;18.40;;;;;;;3.68;100.00;96734.31;1024726;28;20341;-69
2021/10/27 01:45:30;;;;;;;27.20;17.05;;;;;;;3.59;100.00;96730.28;1026288;28;20026;-72
2021/10/27 01:46:00;;;;;;;23.88;16.95;;;;;;;3.64;100.00;96741.69;1020572;28;20415;-69
2021/10/27 01:46:35;;;;;;;29.02;17.45;;;;;;;3.56;100.00;96725.50;1026887;28;20740;-69
2021/10/27 01:47:06;;;;;;;25.33;17.48;;;;;;;3.50;100.00;96724.47;1032196;28;20026;-69
2021/10/27 01:47:40;;;;;;;24.02;17.25;;;;;;;3.49;100.00;96728.88;1032388;28;20611;-70
2021/10/27 01:48:10;;;;;;;33.13;17.63;;;;;;;3.56;100.00;96743.66;1029721;28;20946;-70
2021/10/27 01:48:41;;;;;;;27.92;17.40;;;;;;;3.54;100.00;96742.06;1027873;28;20277;-69
2021/10/27 01:49:12;;;;;;;32.00;17.55;;;;;;;3.54;100.00;96744.66;1031309;28;20077;-69
2021/10/27 01:49:43;;;;;;;25.00;17.30;;;;;;;3.55;100.00;96740.25;1031472;28;20093;-69
2021/10/27 01:50:13;;;;;;;186.60;26.35;;;;;;;3.54;100.00;96739.44;1031018;28;20250;-71
2021/10/27 01:50:44;;;;;;;35.42;19.05;;;;;;;3.56;100.00;96741.06;1031092;28;20034;-71
2021/10/27 01:51:14;;;;;;;46.60;19.40;;;;;;;3.56;100.00;96746.28;1026904;28;20098;-70
2021/10/27 01:51:45;;;;;;;68.18;19.70;;;;;;;3.56;100.00;96741.06;1022943;28;20023;-69
2021/10/27 01:52:16;;;;;;;36.65;18.88;;;;;;;3.57;100.00;96743.47;1026962;28;20030;-69
2021/10/27 01:52:46;;;;;;;69.32;21.95;;;;;;;3.50;100.00;96733.06;1026498;28;20631;-69
2021/10/27 01:53:17;;;;;;;30.77;19.20;;;;;;;3.57;100.00;96743.47;1026787;28;20266;-70
2021/10/27 01:53:47;;;;;;;61.08;21.85;;;;;;;3.51;100.00;96736.44;1026828;28;20023;-70
2021/10/27 01:54:18;;;;;;;99.28;22.35;;;;;;;3.56;100.00;96748.84;1026910;28;20481;-69
2021/10/27 01:54:48;;;;;;;46.67;20.73;;;;;;;3.54;100.00;96741.25;1027028;28;20500;-68
2021/10/27 01:55:18;;;;;;;34.50;19.33;;;;;;;3.54;100.00;96749.03;1039339;28;20021;-70
2021/10/27 01:55:49;;;;;;;51.88;19.88;;;;;;;3.51;100.00;96739.84;1043367;28;20029;-71
2021/10/27 01:56:20;;;;;;;53.65;20.75;;;;;;;3.53;100.00;96747.44;1043364;28;20429;-68
2021/10/27 01:56:51;;;;;;;44.97;21.02;;;;;;;3.54;100.00;96744.66;1039073;28;20199;-71
2021/10/27 01:57:22;;;;;;;41.78;22.10;;;;;;;3.61;100.00;96747.28;1039073;28;20344;-70
2021/10/27 01:57:52;;;;;;;31.95;21.77;;;;;;;3.63;100.00;96736.72;1034388;28;20022;-71
2021/10/27 01:58:23;;;;;;;29.42;20.70;;;;;;;3.73;100.00;96742.34;1026948;28;20576;-69
2021/10/27 01:58:56;;;;;;;34.30;21.85;;;;;;;3.79;100.00;96749.34;1030953;28;20026;-71
2021/10/27 01:59:27;;;;;;;34.10;22.02;;;;;;;3.84;100.00;96743.56;1027832;28;20033;-72
2021/10/27 01:59:57;;;;;;;37.05;22.92;;;;;;;3.97;100.00;96749.59;1027173;28;20262;-71
2021/10/27 02:00:27;;;;;;;37.35;23.70;;;;;;;4.04;100.00;96749.63;1031092;28;20023;-71
2021/10/27 02:00:58;;;;;;;32.92;23.50;;;;;;;4.10;100.00;96745.44;1030995;28;20073;-70
2021/10/27 02:01:28;;;;;;;36.83;25.33;;;;;;;4.08;100.00;96750.03;1038901;28;20025;-69
2021/10/27 02:01:59;;;;;;;29.90;20.02;;;;;;;3.97;100.00;96733.22;1043335;28;20037;-71
2021/10/27 02:02:29;;;;;;;38.50;22.45;;;;;;;4.12;100.00;96746.03;1043052;28;20152;-71
2021/10/27 02:03:00;;;;;;;32.75;22.17;;;;;;;4.17;100.00;96743.66;1039106;28;20337;-72
2021/10/27 02:03:30;;;;;;;35.65;24.30;;;;;;;4.18;100.00;96747.84;1035201;28;20060;-70
2021/10/27 02:04:01;;;;;;;35.13;23.08;;;;;;;4.19;100.00;96742.47;1035002;28;20029;-71
2021/10/27 02:04:31;;;;;;;30.92;21.98;;;;;;;4.25;100.00;96741.66;1022879;29;20322;-71
2021/10/27 02:05:02;;;;;;;33.75;22.95;;;;;;;4.29;100.00;96744.66;1026821;28;20066;-72
2021/10/27 02:05:32;;;;;;;39.08;23.10;;;;;;;4.25;100.00;96736.47;1026895;28;20026;-71
2021/10/27 02:06:03;;;;;;;32.40;23.92;;;;;;;4.29;100.00;96746.47;1031153;28;20520;-71
2021/10/27 02:06:33;;;;;;;34.00;22.85;;;;;;;4.29;100.00;96749.84;1030753;28;20022;-71
2021/10/27 02:07:03;;;;;;;33.35;23.30;;;;;;;4.29;100.00;96749.84;1030926;28;20380;-71
2021/10/27 02:07:34;;;;;;;38.05;23.90;;;;;;;4.29;100.00;96747.25;1031050;28;20496;-70
2021/10/27 02:08:05;;;;;;;38.13;22.95;;;;;;;4.25;100.00;96752.06;1030007;28;20488;-71
2021/10/27 02:08:35;;;;;;;34.45;23.10;;;;;;;4.19;100.00;96747.66;1034908;28;20381;-70
2021/10/27 02:09:06;;;;;;;38.20;22.65;;;;;;;4.22;100.00;96746.44;1026798;28;20086;-71
2021/10/27 02:09:37;;;;;;;32.15;21.98;;;;;;;4.15;100.00;96743.03;1026775;28;20150;-71
2021/10/27 02:10:09;;;;;;;34.72;23.30;;;;;;;4.16;100.00;96752.47;1026775;28;20031;-70
2021/10/27 02:10:39;;;;;;;32.35;21.98;;;;;;;4.14;100.00;96755.22;1030584;28;20324;-69
2021/10/27 02:11:10;;;;;;;34.47;22.88;;;;;;;4.13;100.00;96748.44;1030867;28;20262;-69
2021/10/27 02:11:40;;;;;;;34.58;24.17;;;;;;;4.12;100.00;96753.81;1031055;28;20018;-69
2021/10/27 02:12:11;;;;;;;35.15;23.52;;;;;;;4.05;100.00;96746.00;1034957;28;20110;-69
2021/10/27 02:12:42;;;;;;;35.35;22.40;;;;;;;4.04;100.00;96741.03;1030919;28;20026;-69
2021/10/27 02:13:13;;;;;;;34.50;23.90;;;;;;;4.07;100.00;96749.22;1026794;28;20047;-69
2021/10/27 02:13:43;;;;;;;36.40;23.90;;;;;;;4.03;100.00;96749.81;1026899;28;20262;-70
2021/10/27 02:14:14;;;;;;;33.60;22.45;;;;;;;4.06;100.00;96762.38;1027494;28;20035;-70
2021/10/27 02:14:44;;;;;;;33.90;22.15;;;;;;;3.87;100.00;96723.22;1035229;28;20088;-69
2021/10/27 02:15:15;;;;;;;31.77;21.65;;;;;;;3.95;100.00;96743.78;1038947;28;20029;-69
2021/10/27 02:15:45;;;;;;;32.17;22.60;;;;;;;4.09;100.00;96755.03;1039326;28;20538;-69
2021/10/27 02:16:16;;;;;;;30.88;21.65;;;;;;;4.08;100.00;96756.00;1034732;28;20530;-69
2021/10/27 02:16:46;;;;;;;32.42;22.52;;;;;;;4.10;100.00;96753.25;1026880;28;20027;-71
2021/10/27 02:17:17;;;;;;;34.05;23.38;;;;;;;4.12;100.00;96756.41;1022891;28;20062;-68
2021/10/27 02:17:47;;;;;;;33.72;22.70;;;;;;;4.11;100.00;96749.63;1026163;28;20501;-68
2021/10/27 02:18:18;;;;;;;35.92;22.77;;;;;;;4.10;100.00;96756.63;1026717;28;20031;-70
2021/10/27 02:18:48;;;;;;;36.13;22.65;;;;;;;4.03;100.00;96742.03;1030691;28;20041;-70
2021/10/27 02:19:19;;;;;;;30.48;21.63;;;;;;;4.09;100.00;96756.81;1034843;28;20029;-71
2021/10/27 02:19:49;;;;;;;33.95;22.65;;;;;;;4.09;100.00;96757.63;1034948;28;20022;-69
2021/10/27 02:20:19;;;;;;;30.10;21.35;;;;;;;4.08;100.00;96756.00;1034895;28;20021;-69
2021/10/27 02:20:50;;;;;;;32.15;22.77;;;;;;;4.07;100.00;96758.81;1030861;28;20029;-70
2021/10/27 02:21:20;;;;;;;30.48;22.10;;;;;;;4.04;100.00;96754.00;1034825;28;20030;-69
2021/10/27 02:21:52;;;;;;;31.70;21.38;;;;;;;4.06;100.00;96754.59;1034836;28;20108;-69